Impacts TAF Board
For situational awareness. Not to be used for flight planning purposes.
IDs:

KFLL - Ft Lauderdale-Hollyw, FL, US

Issued at 2100 UTC 19 Jan 2019
Updated at 2241 UTC 19 Jan 2019
Potential Impact None Slight Moderate High
Time<<20/23Z 21/00Z 21/01Z 21/02Z 21/03Z 21/04Z 21/05Z 21/06Z 21/07Z 21/08Z 21/09Z 21/10Z 21/11Z
Type PRVL
VIS >6
CIG --
Cover SCT
FltCat VFR
WX --
WDir 290
WSpd 15
WGst 25
Raw TAF
KFLL 192100Z 1921/2024 16012KT P6SM FEW040 SCT120
  FM200600 19007KT P6SM SCT035 BKN200
  FM201100 21010KT P6SM VCSH SCT035 OVC080
  FM201500 26013KT P6SM VCSH SCT025 BKN050
  FM201900 29015G25KT P6SM SCT040


METAR Board
Radar Display
Forecast Discussion
For situational awareness. Not to be used for flight planning purposes.